createdAt,value
2023-04-04T00:00:12.383Z,60.16
2023-04-04T00:02:40.224Z,61.18
2023-04-04T00:05:09.833Z,60.60
2023-04-04T00:07:37.799Z,59.62
2023-04-04T00:10:06.183Z,60.11
2023-04-04T00:12:33.762Z,60.85
2023-04-04T00:15:01.385Z,61.12
2023-04-04T00:17:29.187Z,60.05
2023-04-04T00:19:57.083Z,59.67
2023-04-04T00:22:26.158Z,59.79
2023-04-04T00:24:53.749Z,60.20
2023-04-04T00:27:21.547Z,60.08
2023-04-04T00:29:51.506Z,60.47
2023-04-04T00:32:19.180Z,59.74
2023-04-04T00:34:46.844Z,59.77
2023-04-04T00:37:14.435Z,60.87
2023-04-04T00:39:43.774Z,60.64
2023-04-04T00:42:11.692Z,61.19
2023-04-04T00:44:39.525Z,59.72
2023-04-04T00:47:07.275Z,61.02
2023-04-04T00:49:34.958Z,60.03
2023-04-04T00:52:03.129Z,60.07
2023-04-04T00:54:31.474Z,60.40
2023-04-04T00:57:02.087Z,60.73
2023-04-04T00:59:30.098Z,60.34
2023-04-04T01:01:58.267Z,60.53
2023-04-04T01:04:25.988Z,60.96
2023-04-04T01:06:53.686Z,59.90
2023-04-04T01:09:23.000Z,61.38
2023-04-04T01:11:51.462Z,60.42
2023-04-04T01:14:20.471Z,60.81
2023-04-04T01:16:49.914Z,61.83
2023-04-04T01:19:31.868Z,61.24
2023-04-04T01:22:01.283Z,61.54
2023-04-04T01:24:33.627Z,61.60
2023-04-04T01:27:02.900Z,61.21
2023-04-04T01:29:30.670Z,61.53
2023-04-04T01:32:05.162Z,61.13
2023-04-04T01:34:42.954Z,61.72
2023-04-04T01:37:17.715Z,61.52
2023-04-04T01:39:50.656Z,61.48
2023-04-04T01:42:20.991Z,61.18
2023-04-04T01:44:48.854Z,61.13
2023-04-04T01:47:16.901Z,62.21
2023-04-04T01:49:44.574Z,62.10
2023-04-04T01:52:12.269Z,62.56
2023-04-04T01:54:39.819Z,62.81
2023-04-04T01:57:07.551Z,61.93
2023-04-04T01:59:36.642Z,62.01
2023-04-04T02:02:04.270Z,62.31
2023-04-04T02:04:32.185Z,63.41
2023-04-04T02:07:00.101Z,62.49
2023-04-04T02:09:27.775Z,62.07
2023-04-04T02:11:56.360Z,62.73
2023-04-04T02:14:23.985Z,62.27
2023-04-04T02:16:52.862Z,62.36
2023-04-04T02:19:20.585Z,61.96
2023-04-04T02:21:48.211Z,63.06
2023-04-04T02:24:15.834Z,63.07
2023-04-04T02:26:43.503Z,63.27
2023-04-04T02:29:11.172Z,63.09
2023-04-04T02:31:38.796Z,63.63
2023-04-04T02:34:08.929Z,63.63
2023-04-04T02:36:36.724Z,64.16
2023-04-04T02:39:04.741Z,63.64
2023-04-04T02:41:32.606Z,63.69
2023-04-04T02:44:00.275Z,63.03
2023-04-04T02:46:30.185Z,63.42
2023-04-04T02:48:57.851Z,63.52
2023-04-04T02:51:27.460Z,64.10
2023-04-04T02:53:55.022Z,63.93
2023-04-04T02:56:22.753Z,64.02
2023-04-04T02:58:53.396Z,63.89
2023-04-04T03:01:21.320Z,63.82
2023-04-04T03:03:50.086Z,62.98
2023-04-04T03:06:20.415Z,63.35
2023-04-04T03:08:50.479Z,64.26
2023-04-04T03:11:21.214Z,64.60
2023-04-04T03:13:51.380Z,64.20
2023-04-04T03:16:20.705Z,64.35
2023-04-04T03:18:48.369Z,63.93
2023-04-04T03:21:16.931Z,63.37
2023-04-04T03:23:44.640Z,63.89
2023-04-04T03:26:13.818Z,64.17
2023-04-04T03:28:42.075Z,63.69
2023-04-04T03:31:10.184Z,63.90
2023-04-04T03:33:38.125Z,63.50
2023-04-04T03:36:11.813Z,64.33
2023-04-04T03:38:39.989Z,64.13
2023-04-04T03:41:08.759Z,63.89
2023-04-04T03:43:37.893Z,63.22
2023-04-04T03:46:07.213Z,63.24
2023-04-04T03:48:35.528Z,63.87
2023-04-04T03:51:04.937Z,63.67
2023-04-04T03:53:33.034Z,64.60
2023-04-04T03:56:01.093Z,64.31
2023-04-04T03:58:30.309Z,64.68
2023-04-04T04:00:59.248Z,63.89
2023-04-04T04:03:27.021Z,63.12
2023-04-04T04:05:55.301Z,63.03
2023-04-04T04:08:24.089Z,63.56
2023-04-04T04:10:53.358Z,63.40
2023-04-04T04:13:22.894Z,63.66
2023-04-04T04:15:52.653Z,63.16
2023-04-04T04:18:21.741Z,64.01
2023-04-04T04:20:49.448Z,64.42
2023-04-04T04:23:17.161Z,63.85
2023-04-04T04:25:49.133Z,64.49
2023-04-04T04:28:18.577Z,64.09
2023-04-04T04:30:46.427Z,64.70
2023-04-04T04:33:14.226Z,64.45
2023-04-04T04:35:43.423Z,64.18
2023-04-04T04:38:14.093Z,64.31
2023-04-04T04:40:43.010Z,64.39
2023-04-04T04:43:11.011Z,64.55
2023-04-04T04:45:38.756Z,63.87
2023-04-04T04:48:14.781Z,63.71
2023-04-04T04:50:53.391Z,64.16
2023-04-04T04:53:21.928Z,64.01
2023-04-04T04:55:52.422Z,64.31
2023-04-04T04:58:24.096Z,63.99
2023-04-04T05:00:58.182Z,63.50
2023-04-04T05:03:26.245Z,64.16
2023-04-04T05:05:55.404Z,63.95
2023-04-04T05:08:23.692Z,63.99
2023-04-04T05:10:52.780Z,64.16
2023-04-04T05:13:20.413Z,63.22
2023-04-04T05:15:49.733Z,63.11
2023-04-04T05:18:18.547Z,62.85
2023-04-04T05:20:52.161Z,62.37
2023-04-04T05:23:21.560Z,62.32
2023-04-04T05:25:50.638Z,60.07
2023-04-04T05:28:18.368Z,56.79
2023-04-04T05:30:48.114Z,54.40
2023-04-04T05:33:15.774Z,54.19
2023-04-04T05:35:43.508Z,52.93
2023-04-04T05:38:11.111Z,52.14
2023-04-04T05:40:40.480Z,52.26
2023-04-04T05:43:09.371Z,52.21
2023-04-04T05:45:38.424Z,50.52
2023-04-04T05:48:07.728Z,49.71
2023-04-04T05:50:35.787Z,50.15
2023-04-04T05:53:07.296Z,50.72
2023-04-04T05:55:35.069Z,51.15
2023-04-04T05:58:04.145Z,50.43
2023-04-04T06:00:32.169Z,49.07
2023-04-04T06:03:00.420Z,48.16
2023-04-04T06:05:28.541Z,47.01
2023-04-04T06:08:03.913Z,45.99
2023-04-04T06:10:31.656Z,45.88
2023-04-04T06:12:59.250Z,43.84
2023-04-04T06:15:28.269Z,42.14
2023-04-04T06:17:55.939Z,41.48
2023-04-04T06:20:24.187Z,41.90
2023-04-04T06:22:51.944Z,41.80
2023-04-04T06:25:22.102Z,41.78
2023-04-04T06:27:49.907Z,39.71
2023-04-04T06:30:18.230Z,41.21
2023-04-04T06:32:47.269Z,42.51
2023-04-04T06:35:15.178Z,41.95
2023-04-04T06:37:43.259Z,40.66
2023-04-04T06:40:11.828Z,41.04
2023-04-04T06:42:39.495Z,40.04
2023-04-04T06:45:08.578Z,42.08
2023-04-04T06:47:36.196Z,42.12
2023-04-04T06:50:06.154Z,42.31
2023-04-04T06:52:34.511Z,42.11
2023-04-04T06:55:02.223Z,39.48
2023-04-04T06:57:29.867Z,38.70
2023-04-04T06:59:57.660Z,36.91
2023-04-04T07:02:25.802Z,36.35
2023-04-04T07:04:53.503Z,36.61
2023-04-04T07:07:22.675Z,35.72
2023-04-04T07:09:51.582Z,35.71
2023-04-04T07:12:19.587Z,35.56
2023-04-04T07:14:47.461Z,39.14
2023-04-04T07:17:24.228Z,37.27
2023-04-04T07:19:54.190Z,37.37
2023-04-04T07:22:23.306Z,37.46
2023-04-04T07:24:51.003Z,36.48
2023-04-04T07:27:21.797Z,34.44
2023-04-04T07:29:56.157Z,34.71
2023-04-04T07:32:27.565Z,35.23
2023-04-04T07:34:55.441Z,35.09
2023-04-04T07:37:26.540Z,34.43
2023-04-04T07:39:54.178Z,36.46
2023-04-04T07:42:23.932Z,37.39
2023-04-04T07:44:51.957Z,37.66
2023-04-04T07:47:20.523Z,36.10
2023-04-04T07:49:48.282Z,34.86
2023-04-04T07:52:16.376Z,37.97
2023-04-04T07:54:45.309Z,37.88
2023-04-04T07:57:12.970Z,37.34
2023-04-04T07:59:40.784Z,37.29
2023-04-04T08:02:08.477Z,37.24
2023-04-04T08:04:36.541Z,38.77
2023-04-04T08:07:04.182Z,38.44
2023-04-04T08:09:34.329Z,38.38
2023-04-04T08:12:03.535Z,37.09
2023-04-04T08:14:31.430Z,37.45
2023-04-04T08:17:01.246Z,39.97
2023-04-04T08:19:28.980Z,40.15
2023-04-04T08:21:56.904Z,41.37
2023-04-04T08:24:25.571Z,39.37
2023-04-04T08:27:04.618Z,39.19
2023-04-04T08:29:35.522Z,38.24
2023-04-04T08:32:03.257Z,37.59
2023-04-04T08:34:31.139Z,38.73
2023-04-04T08:37:00.152Z,36.70
2023-04-04T08:39:28.103Z,36.98
2023-04-04T08:42:02.634Z,34.43
2023-04-04T08:44:31.174Z,35.33
2023-04-04T08:47:01.483Z,38.02
2023-04-04T08:49:32.972Z,38.96
2023-04-04T08:52:02.649Z,37.07
2023-04-04T08:54:32.112Z,36.33
2023-04-04T08:56:59.821Z,36.58
2023-04-04T08:59:27.716Z,38.56
2023-04-04T09:02:03.839Z,38.55
2023-04-04T09:04:32.926Z,38.76
2023-04-04T09:07:03.384Z,38.71
2023-04-04T09:09:32.368Z,38.97
2023-04-04T09:12:01.459Z,37.46
2023-04-04T09:14:31.868Z,35.71
2023-04-04T09:17:00.973Z,36.62
2023-04-04T09:19:28.609Z,38.78
2023-04-04T09:21:56.856Z,36.82
2023-04-04T09:24:24.394Z,37.49
2023-04-04T09:26:54.170Z,36.12
2023-04-04T09:29:22.463Z,38.06
2023-04-04T09:31:51.575Z,39.28
2023-04-04T09:34:21.589Z,39.21
2023-04-04T09:36:49.467Z,38.55
2023-04-04T09:39:17.558Z,38.59
2023-04-04T09:41:46.366Z,39.72
2023-04-04T09:44:15.419Z,39.60
2023-04-04T09:46:43.435Z,39.62
2023-04-04T09:49:13.412Z,39.57
2023-04-04T09:51:45.338Z,38.55
2023-04-04T09:54:28.873Z,38.78
2023-04-04T09:56:58.374Z,40.03
2023-04-04T09:59:27.263Z,39.84
2023-04-04T10:01:55.940Z,40.13
2023-04-04T10:04:27.168Z,40.08
2023-04-04T10:06:56.612Z,40.89
2023-04-04T10:09:24.351Z,41.69
2023-04-04T10:11:52.298Z,40.89
2023-04-04T10:14:20.147Z,40.94
2023-04-04T10:16:47.717Z,40.15
2023-04-04T10:19:19.001Z,40.06
2023-04-04T10:21:47.708Z,39.92
2023-04-04T10:24:18.938Z,40.10
2023-04-04T10:26:46.784Z,41.49
2023-04-04T10:29:14.542Z,40.25
2023-04-04T10:31:48.139Z,39.75
2023-04-04T10:34:23.066Z,40.50
2023-04-04T10:36:52.802Z,40.13
2023-04-04T10:39:27.174Z,40.48
2023-04-04T10:41:56.794Z,40.82
2023-04-04T10:44:29.602Z,39.30
2023-04-04T10:46:59.634Z,38.78
2023-04-04T10:49:29.679Z,38.68
2023-04-04T10:51:58.260Z,39.43
2023-04-04T10:54:29.131Z,39.45
2023-04-04T10:57:01.366Z,39.25
2023-04-04T10:59:29.191Z,39.32
2023-04-04T11:01:58.725Z,38.63
2023-04-04T11:04:35.031Z,39.22
2023-04-04T11:07:17.609Z,38.85
2023-04-04T11:09:54.845Z,39.92
2023-04-04T11:12:27.153Z,39.03
2023-04-04T11:15:09.736Z,40.09
2023-04-04T11:18:14.321Z,41.01
2023-04-04T11:20:52.581Z,41.46
2023-04-04T11:23:22.736Z,40.37
2023-04-04T11:25:55.559Z,40.19
2023-04-04T11:28:27.977Z,39.82
2023-04-04T11:31:24.741Z,39.65
2023-04-04T11:33:59.454Z,40.17
2023-04-04T11:36:55.069Z,41.03
2023-04-04T11:39:25.880Z,40.72
2023-04-04T11:42:03.498Z,39.89
2023-04-04T11:44:32.446Z,41.11
2023-04-04T11:47:05.167Z,40.95
2023-04-04T11:49:36.113Z,39.53
2023-04-04T11:52:06.658Z,39.80
2023-04-04T11:54:34.726Z,39.36
2023-04-04T11:57:03.822Z,38.72
2023-04-04T11:59:31.670Z,39.25
2023-04-04T12:02:01.152Z,40.12
2023-04-04T12:04:29.240Z,40.60
2023-04-04T12:06:57.951Z,41.26
2023-04-04T12:09:28.316Z,40.84
2023-04-04T12:11:56.918Z,40.44
2023-04-04T12:14:27.193Z,41.28
2023-04-04T12:16:57.480Z,40.37
2023-04-04T12:19:25.826Z,40.29
2023-04-04T12:21:54.863Z,39.86
2023-04-04T12:24:23.027Z,39.40
2023-04-04T12:26:53.114Z,39.57
2023-04-04T12:29:23.236Z,39.66
2023-04-04T12:31:53.427Z,39.33
2023-04-04T12:34:23.730Z,40.25
2023-04-04T12:36:54.070Z,39.82
2023-04-04T12:39:23.397Z,40.26
2023-04-04T12:41:55.530Z,39.89
2023-04-04T12:44:29.174Z,39.83
2023-04-04T12:47:01.343Z,40.69
2023-04-04T12:49:31.148Z,40.03
2023-04-04T12:52:03.823Z,39.45
2023-04-04T12:54:33.066Z,39.87
2023-04-04T12:57:04.427Z,40.31
2023-04-04T12:59:33.818Z,40.18
2023-04-04T13:02:05.279Z,38.84
2023-04-04T13:04:33.338Z,38.53
2023-04-04T13:07:01.907Z,38.47
2023-04-04T13:09:29.676Z,38.88
2023-04-04T13:11:58.827Z,38.85
2023-04-04T13:14:26.634Z,39.73
2023-04-04T13:17:08.089Z,39.20
2023-04-04T13:19:36.148Z,38.68
2023-04-04T13:22:06.942Z,39.08
2023-04-04T13:24:34.797Z,39.30
2023-04-04T13:27:02.492Z,39.32
2023-04-04T13:29:30.065Z,38.89
2023-04-04T13:32:00.123Z,38.89
2023-04-04T13:34:29.371Z,39.35
2023-04-04T13:36:57.766Z,39.00
2023-04-04T13:39:25.586Z,38.50
2023-04-04T13:41:53.942Z,38.39
2023-04-04T13:44:21.622Z,38.05
2023-04-04T13:46:49.912Z,38.19
2023-04-04T13:49:17.582Z,38.88
2023-04-04T13:51:47.975Z,38.29
2023-04-04T13:54:15.698Z,38.50
2023-04-04T13:56:43.371Z,38.25
2023-04-04T13:59:11.368Z,38.33
2023-04-04T14:01:39.558Z,38.05
2023-04-04T14:04:16.594Z,38.36
2023-04-04T14:06:52.218Z,37.79
2023-04-04T14:09:20.165Z,37.74
2023-04-04T14:11:48.192Z,38.06
2023-04-04T14:14:15.830Z,38.20
2023-04-04T14:16:43.529Z,39.30
2023-04-04T14:19:11.299Z,38.72
2023-04-04T14:21:39.491Z,38.97
2023-04-04T14:24:08.888Z,40.34
2023-04-04T14:26:37.729Z,37.79
2023-04-04T14:29:05.706Z,38.35
2023-04-04T14:31:34.923Z,39.41
2023-04-04T14:34:02.791Z,39.52
2023-04-04T14:36:31.607Z,38.15
2023-04-04T14:38:59.787Z,38.35
2023-04-04T14:41:29.198Z,38.00
2023-04-04T14:43:57.162Z,38.97
2023-04-04T14:46:27.365Z,38.68
2023-04-04T14:48:55.273Z,38.82
2023-04-04T14:51:23.100Z,38.92
2023-04-04T14:53:52.465Z,38.66
2023-04-04T14:56:22.752Z,39.08
2023-04-04T14:58:52.487Z,39.78
2023-04-04T15:01:21.963Z,38.20
2023-04-04T15:03:49.683Z,37.85
2023-04-04T15:06:17.489Z,38.52
2023-04-04T15:08:45.585Z,37.34
2023-04-04T15:11:15.866Z,38.25
2023-04-04T15:13:44.231Z,37.61
2023-04-04T15:16:13.335Z,37.71
2023-04-04T15:18:41.064Z,38.04
2023-04-04T15:21:08.713Z,37.96
2023-04-04T15:23:36.572Z,38.08
2023-04-04T15:26:04.296Z,38.23
2023-04-04T15:28:31.973Z,39.18
2023-04-04T15:31:01.946Z,39.01
2023-04-04T15:33:32.259Z,38.79
2023-04-04T15:36:01.133Z,37.34
2023-04-04T15:38:28.966Z,37.62
2023-04-04T15:40:57.838Z,37.52
2023-04-04T15:43:28.179Z,38.12
2023-04-04T15:45:55.778Z,37.64
2023-04-04T15:48:23.677Z,38.05
2023-04-04T15:50:52.936Z,38.12
2023-04-04T15:53:20.743Z,38.30
2023-04-04T15:55:49.643Z,37.91
2023-04-04T15:58:17.193Z,38.43
2023-04-04T16:00:47.465Z,38.64
2023-04-04T16:03:15.668Z,39.26
2023-04-04T16:05:43.623Z,38.96
2023-04-04T16:08:13.263Z,38.79
2023-04-04T16:10:41.332Z,39.37
2023-04-04T16:13:09.316Z,39.03
2023-04-04T16:15:37.060Z,39.07
2023-04-04T16:18:04.952Z,38.48
2023-04-04T16:20:32.615Z,37.95
2023-04-04T16:23:00.253Z,38.23
2023-04-04T16:25:29.431Z,38.86
2023-04-04T16:27:57.133Z,38.65
2023-04-04T16:30:24.955Z,39.16
2023-04-04T16:32:52.662Z,38.58
2023-04-04T16:35:20.488Z,39.47
2023-04-04T16:37:48.709Z,39.38
2023-04-04T16:40:16.584Z,39.36
2023-04-04T16:42:45.983Z,39.45
2023-04-04T16:45:13.650Z,40.08
2023-04-04T16:47:41.302Z,39.21
2023-04-04T16:50:09.482Z,40.02
2023-04-04T16:52:37.107Z,39.87
2023-04-04T16:55:05.309Z,40.12
2023-04-04T16:57:33.215Z,38.79
2023-04-04T17:00:04.042Z,40.04
2023-04-04T17:02:34.628Z,40.33
2023-04-04T17:05:02.590Z,40.23
2023-04-04T17:07:30.510Z,39.45
2023-04-04T17:09:58.093Z,40.12
2023-04-04T17:12:27.155Z,41.17
2023-04-04T17:14:54.954Z,41.39
2023-04-04T17:17:23.996Z,41.43
2023-04-04T17:19:51.920Z,42.10
2023-04-04T17:22:19.822Z,42.42
2023-04-04T17:24:47.524Z,42.10
2023-04-04T17:27:15.131Z,42.18
2023-04-04T17:29:42.901Z,42.42
2023-04-04T17:32:10.826Z,42.48
2023-04-04T17:34:40.055Z,43.05
2023-04-04T17:37:11.090Z,43.51
2023-04-04T17:39:38.858Z,43.72
2023-04-04T17:42:06.944Z,42.75
2023-04-04T17:44:34.822Z,42.81
2023-04-04T17:47:05.427Z,42.81
2023-04-04T17:49:33.118Z,42.86
2023-04-04T17:52:02.572Z,43.55
2023-04-04T17:54:30.738Z,43.37
2023-04-04T17:56:59.440Z,44.05
2023-04-04T17:59:27.961Z,43.53
2023-04-04T18:01:55.862Z,43.83
2023-04-04T18:04:25.359Z,44.05
2023-04-04T18:06:54.552Z,44.20
2023-04-04T18:09:26.490Z,44.35
2023-04-04T18:11:58.216Z,44.59
2023-04-04T18:14:26.661Z,45.11
2023-04-04T18:16:54.666Z,45.85
2023-04-04T18:19:22.744Z,46.52
2023-04-04T18:21:51.616Z,47.31
2023-04-04T18:24:19.396Z,47.20
2023-04-04T18:26:48.421Z,47.59
2023-04-04T18:29:16.251Z,47.64
2023-04-04T18:31:44.091Z,47.51
2023-04-04T18:34:14.975Z,47.80
2023-04-04T18:36:42.656Z,47.61
2023-04-04T18:39:11.309Z,48.15
2023-04-04T18:41:39.072Z,47.85
2023-04-04T18:44:08.800Z,47.96
2023-04-04T18:46:38.111Z,48.31
2023-04-04T18:49:06.101Z,48.42
2023-04-04T18:51:34.425Z,48.41
2023-04-04T18:54:02.452Z,48.56
2023-04-04T18:56:30.388Z,48.54
2023-04-04T18:58:58.117Z,49.03
2023-04-04T19:01:27.307Z,49.01
2023-04-04T19:03:55.344Z,49.26
2023-04-04T19:06:26.711Z,49.65
2023-04-04T19:09:01.047Z,49.70
2023-04-04T19:11:29.198Z,50.04
2023-04-04T19:13:57.039Z,49.86
2023-04-04T19:16:25.005Z,49.70
2023-04-04T19:18:54.345Z,50.40
2023-04-04T19:21:22.234Z,50.56
2023-04-04T19:23:50.033Z,50.87
2023-04-04T19:26:18.355Z,50.72
2023-04-04T19:28:46.651Z,50.55
2023-04-04T19:31:21.490Z,50.47
2023-04-04T19:33:50.555Z,50.69
2023-04-04T19:36:20.804Z,51.32
2023-04-04T19:38:49.243Z,50.72
2023-04-04T19:41:33.771Z,50.72
2023-04-04T19:44:01.611Z,51.00
2023-04-04T19:46:32.158Z,51.30
2023-04-04T19:49:02.772Z,51.42
2023-04-04T19:51:52.838Z,52.29
2023-04-04T19:54:26.121Z,51.81
2023-04-04T19:56:59.788Z,52.19
2023-04-04T19:59:59.030Z,52.56
2023-04-04T20:03:02.963Z,52.50
2023-04-04T20:06:03.355Z,52.85
2023-04-04T20:08:38.488Z,53.00
2023-04-04T20:11:07.565Z,53.00
2023-04-04T20:13:37.032Z,53.05
2023-04-04T20:16:11.007Z,53.37
2023-04-04T20:18:39.976Z,53.03
2023-04-04T20:21:10.494Z,54.03
2023-04-04T20:23:43.292Z,54.01
2023-04-04T20:26:14.341Z,54.29
2023-04-04T20:28:45.554Z,54.66
2023-04-04T20:31:17.231Z,54.54
2023-04-04T20:33:45.288Z,54.41
2023-04-04T20:36:31.254Z,54.76
2023-04-04T20:39:00.815Z,55.35
2023-04-04T20:41:28.804Z,55.58
2023-04-04T20:43:58.198Z,55.69
2023-04-04T20:46:27.256Z,55.21
2023-04-04T20:48:57.054Z,54.96
2023-04-04T20:51:32.481Z,55.22
2023-04-04T20:54:06.142Z,56.15
2023-04-04T20:56:52.545Z,56.30
2023-04-04T20:59:38.393Z,55.75
2023-04-04T21:02:16.705Z,55.47
2023-04-04T21:04:48.066Z,56.09
2023-04-04T21:07:38.745Z,55.50
2023-04-04T21:10:26.422Z,56.08
2023-04-04T21:12:54.804Z,55.32
2023-04-04T21:15:28.386Z,55.30
2023-04-04T21:17:56.798Z,55.63
2023-04-04T21:21:01.975Z,55.53
2023-04-04T21:23:34.042Z,56.05
2023-04-04T21:26:04.574Z,56.19
2023-04-04T21:28:37.285Z,56.35
2023-04-04T21:31:12.240Z,56.32
2023-04-04T21:33:40.772Z,56.04
2023-04-04T21:36:16.116Z,56.49
2023-04-04T21:38:43.867Z,56.83
2023-04-04T21:41:21.351Z,56.78
2023-04-04T21:43:48.977Z,57.29
2023-04-04T21:46:16.833Z,57.11
2023-04-04T21:48:44.632Z,57.29
2023-04-04T21:51:12.376Z,57.18
2023-04-04T21:53:39.908Z,56.82
2023-04-04T21:56:07.741Z,57.40
2023-04-04T21:58:37.955Z,57.65
2023-04-04T22:01:05.995Z,57.70
2023-04-04T22:03:33.612Z,57.87
2023-04-04T22:06:01.250Z,57.83
2023-04-04T22:08:28.896Z,57.60
2023-04-04T22:10:58.817Z,58.09
2023-04-04T22:13:33.166Z,58.18
2023-04-04T22:16:04.781Z,58.55
2023-04-04T22:18:34.620Z,58.17
2023-04-04T22:21:04.211Z,58.70
2023-04-04T22:23:35.469Z,58.98
2023-04-04T22:26:06.236Z,58.82
2023-04-04T22:28:34.520Z,58.92
2023-04-04T22:31:03.724Z,58.83
2023-04-04T22:33:33.861Z,58.27
2023-04-04T22:36:01.841Z,58.17
2023-04-04T22:38:30.346Z,58.74
2023-04-04T22:40:59.456Z,59.47
2023-04-04T22:43:27.431Z,59.45
2023-04-04T22:45:55.088Z,58.78
2023-04-04T22:48:24.364Z,58.77
2023-04-04T22:50:55.568Z,59.08
2023-04-04T22:53:24.976Z,59.23
2023-04-04T22:55:53.747Z,59.44
2023-04-04T22:58:22.396Z,59.53
2023-04-04T23:00:50.103Z,59.50
2023-04-04T23:03:17.747Z,59.89
2023-04-04T23:05:46.704Z,60.10
2023-04-04T23:08:14.285Z,60.04
2023-04-04T23:10:42.136Z,60.88
2023-04-04T23:13:09.969Z,60.26
2023-04-04T23:15:37.788Z,60.88
2023-04-04T23:18:06.460Z,60.54
2023-04-04T23:20:34.192Z,61.60
2023-04-04T23:23:03.183Z,61.87
2023-04-04T23:25:30.776Z,62.18
2023-04-04T23:27:58.361Z,61.72
2023-04-04T23:30:27.293Z,62.48
2023-04-04T23:32:55.013Z,62.16
2023-04-04T23:35:22.658Z,61.87
2023-04-04T23:37:50.417Z,62.44
2023-04-04T23:40:19.628Z,61.86
2023-04-04T23:42:47.232Z,63.30
2023-04-04T23:45:16.104Z,63.89
2023-04-04T23:47:44.014Z,64.04
2023-04-04T23:50:12.075Z,63.78
2023-04-04T23:52:40.908Z,64.70
2023-04-04T23:55:09.330Z,65.46
2023-04-04T23:57:38.932Z,64.48
